Weather at Daulat Beg Oldi Advanced Landing Ground

Public forecast

Using degrees Celsius for public forecast. Weather courtesy of forecast.io.

Closest aviation weather report (METAR) to Daulat Beg Oldi Advanced Landing Ground

Report is more than 6 hours old.

Closest report is Leh Kushok Bakula Rimpochee Airport, 78.0 nm (144.5 km) SSW.

2024/02/25 05:30 (retrieved 6 hours ago)

VILH 250530Z VRB01KT 6000 SOCC SCT050 BKN120 M02/M18 Q1024 NOSIG

Closest aviation forecast (TAF) to Daulat Beg Oldi Advanced Landing Ground

Closest forecast is Leh Kushok Bakula Rimpochee Airport, 78.0 nm (144.5 km) SSW.

2024/02/25 06:00 (retrieved 6 hours ago)

TAF VILH 250330Z 2506/2518 29005KT 6000 SCT050 BKN120 BECMG 2508/2570 SCT050 BKN100